Lawson Army Air Field (Fort Benning)
KLSF : now visible

Airfield :











YOU CAN JOIN US ON...

 
LOGIN :

Register | Disclaimer

   EN    FR    IT 

 









Legend :    VFR   Marginal VFR   IFR   Intensive IFR   Very Intensive IFR
Visi :
Ceiling :
>= 8 km
>= 3000ft
5 to 8 km
1000 to 3000 ft
1500m to 5 km
500 to 1000 ft
800 to 1500m
200 to 500 ft
< 800m
< 200 ft
Symbols :   Thunderstorms  Fog  Heavy snow  Heavy precipitations  Wind > 20 kt






- Airport Elevation : 232 ft


KLSF - Lawson Army Air Field (Fort Benning)

CURRENT METAR :
  • 290956Z AUTO 00000KT 10SM OVC120 04/02 A3000 RMK AO2 SLP164 T00350023

EXPIRED METARs :
  • 290856Z AUTO 00000KT 10SM OVC120 03/01 A3000 RMK AO2 SLP164 T00250012 57006
  • 290756Z AUTO 00000KT 10SM OVC130 02/01 A3001 RMK AO2 SLP168 T00170007

TAF TAF KLSF
Valid from the 29 at 09:00 until the 30 at 15:00 UTC


290900Z 2909/3015 VRB04KT 9999 BKN120 QNH3000INS
BECMG 2915/2916 08006KT 9999 VCSH FEW050 SCT080 OVC120 QNH2997INS
BECMG 2917/2918 08006KT 8000 -SHRA FEW030 SCT050 OVC080 QNH2995INS
BECMG 2922/2923 06006KT 6000 SHRA BKN030 OVC050 QNH2999INS
BECMG 3001/3002 05006KT 9999 NSW OVC030 QNH3002INS
BECMG 3009/3010 05004KT 9999 OVC010 QNH3006INS TX14/2921Z TN01/2911Z



MET'MAP, your aeronautical weather chart ! - Copyright ORBIFLY December 2007 - Disclaimer

ORBIFLY MET'MAP TEAM :

Programming & Development : Alexandra Zaïnal
Concept & original design : Baudouin d'Aumeries
Assistance for programming : Marc-Olivier Méhu
Technical & hardware support : Manuel Goepfert

Contact : metmap@orbifly.com




SOURCES & CREDITS :

   NOAA       Earth
Advisory